createdAt,value
2018-08-18T00:00:31.738Z,15.92
2018-08-18T00:10:31.702Z,15.81
2018-08-18T00:20:31.746Z,15.6
2018-08-18T00:30:31.720Z,15.3
2018-08-18T00:51:18.508Z,14.81
2018-08-18T00:51:58.965Z,14.81
2018-08-18T01:01:58.979Z,14.64
2018-08-18T01:11:59.327Z,14.54
2018-08-18T01:21:58.970Z,14.62
2018-08-18T01:31:58.971Z,14.47
2018-08-18T01:41:58.992Z,14.43
2018-08-18T01:51:58.963Z,14.46
2018-08-18T02:01:59.017Z,14.42
2018-08-18T02:11:58.976Z,14.2
2018-08-18T02:21:58.984Z,14.12
2018-08-18T02:31:59.001Z,14.07
2018-08-18T02:41:58.983Z,13.79
2018-08-18T02:51:58.996Z,13.65
2018-08-18T03:01:58.970Z,13.73
2018-08-18T03:11:59.032Z,13.52
2018-08-18T03:21:58.973Z,13.43
2018-08-18T03:31:58.943Z,13.11
2018-08-18T03:41:58.936Z,13.09
2018-08-18T03:51:58.962Z,13
2018-08-18T04:01:59.014Z,12.78
2018-08-18T04:11:58.957Z,12.92
2018-08-18T04:21:59.044Z,12.82
2018-08-18T04:31:58.956Z,12.87
2018-08-18T04:41:58.984Z,13.03
2018-08-18T04:51:58.986Z,13.06
2018-08-18T05:01:58.969Z,13.29
2018-08-18T05:11:58.944Z,13.44
2018-08-18T05:21:58.978Z,13.54
2018-08-18T05:31:58.979Z,13.87
2018-08-18T05:41:58.987Z,13.94
2018-08-18T05:51:58.963Z,14.49
2018-08-18T06:01:58.975Z,14.91
2018-08-18T06:11:59.033Z,15.27
2018-08-18T06:21:58.979Z,15.94
2018-08-18T06:31:58.981Z,16.68
2018-08-18T06:41:59.054Z,17.17
2018-08-18T06:51:58.954Z,17.48
2018-08-18T07:01:59.054Z,17.84
2018-08-18T07:11:58.932Z,18.24
2018-08-18T07:21:59.049Z,18.79
2018-08-18T07:31:58.982Z,19.53
2018-08-18T07:41:58.990Z,24.61
2018-08-18T07:51:59.018Z,29.03
2018-08-18T08:01:59.018Z,30.78
2018-08-18T08:11:59.017Z,31.87
2018-08-18T08:28:25.811Z,29.57
2018-08-18T08:31:58.966Z,29.66
2018-08-18T08:41:58.977Z,30.26
2018-08-18T08:51:59.027Z,27.47
2018-08-18T09:01:58.972Z,25.02
2018-08-18T09:11:59.112Z,23.46
2018-08-18T09:21:58.987Z,22.71
2018-08-18T09:32:04.805Z,22.62
2018-08-18T09:42:05.734Z,22.97
2018-08-18T09:51:58.981Z,23.23
2018-08-18T10:01:59.095Z,23.11
2018-08-18T10:11:58.987Z,23.26
2018-08-18T10:21:59.025Z,23.67
2018-08-18T10:31:59.091Z,24
2018-08-18T10:41:59.107Z,23.79
2018-08-18T10:51:59.109Z,24.14
2018-08-18T11:01:59.030Z,24.19
2018-08-18T11:11:59.194Z,24.19
2018-08-18T11:21:59.121Z,23.95
2018-08-18T11:31:59.049Z,24
2018-08-18T11:41:59.109Z,23.89
2018-08-18T11:51:59.072Z,24.24
2018-08-18T12:01:59.229Z,24.52
2018-08-18T12:11:59.031Z,24.39
2018-08-18T12:21:59.929Z,24.56
2018-08-18T12:31:59.041Z,24.91
2018-08-18T12:41:59.076Z,24.77
2018-08-18T12:51:59.052Z,24.95
2018-08-18T13:01:59.065Z,25.07
2018-08-18T13:11:59.041Z,24.94
2018-08-18T13:21:59.041Z,24.94
2018-08-18T13:31:59.060Z,25
2018-08-18T13:41:59.055Z,25.17
2018-08-18T13:51:59.037Z,25.54
2018-08-18T14:01:59.080Z,25.49
2018-08-18T14:11:59.045Z,25.52
2018-08-18T14:21:59.031Z,25.38
2018-08-18T14:31:59.162Z,25.39
2018-08-18T14:41:59.070Z,25.25
2018-08-18T14:51:59.060Z,25.5
2018-08-18T15:01:59.047Z,25.56
2018-08-18T15:11:59.048Z,25.47
2018-08-18T15:21:59.047Z,25.59
2018-08-18T15:31:59.076Z,25.43
2018-08-18T15:41:59.116Z,25.52
2018-08-18T15:51:59.036Z,25.38
2018-08-18T16:01:59.057Z,25.17
2018-08-18T16:11:59.096Z,25.06
2018-08-18T16:21:59.059Z,25.13
2018-08-18T16:31:59.128Z,24.94
2018-08-18T16:41:59.129Z,24.42
2018-08-18T16:51:59.153Z,24.26
2018-08-18T17:01:59.068Z,23.92
2018-08-18T17:11:59.144Z,23.82
2018-08-18T17:21:59.169Z,23.47
2018-08-18T17:31:59.145Z,23.32
2018-08-18T17:41:59.179Z,23.42
2018-08-18T17:51:59.203Z,23.22
2018-08-18T18:01:59.178Z,22.94
2018-08-18T18:11:59.133Z,22.56
2018-08-18T18:22:01.140Z,22.29
2018-08-18T18:31:59.158Z,21.87
2018-08-18T18:41:59.079Z,21.56
2018-08-18T18:51:59.190Z,21.29
2018-08-18T19:01:59.137Z,21.04
2018-08-18T19:11:59.188Z,20.77
2018-08-18T19:21:59.160Z,20.51
2018-08-18T19:31:59.327Z,20.24
2018-08-18T19:41:59.170Z,19.88
2018-08-18T19:51:59.359Z,19.63
2018-08-18T20:01:59.382Z,19.58
2018-08-18T20:11:59.120Z,19.17
2018-08-18T20:21:59.173Z,18.87
2018-08-18T20:31:59.930Z,18.73
2018-08-18T20:42:00.682Z,18.58
2018-08-18T20:51:59.204Z,18.31
2018-08-18T21:01:59.200Z,18.17
2018-08-18T21:11:59.980Z,17.91
2018-08-18T21:21:59.120Z,17.87
2018-08-18T21:31:59.815Z,17.71
2018-08-18T21:41:59.676Z,17.62
2018-08-18T21:51:59.190Z,17.51
2018-08-18T22:01:59.133Z,17.5
2018-08-18T22:11:59.243Z,17.3
2018-08-18T22:21:59.224Z,17.14
2018-08-18T22:31:59.161Z,17.11
2018-08-18T22:41:59.351Z,17.11
2018-08-18T22:51:59.115Z,17.03
2018-08-18T23:01:59.979Z,16.93
2018-08-18T23:11:59.159Z,16.78
2018-08-18T23:21:59.243Z,16.68
2018-08-18T23:31:59.181Z,16.65
2018-08-18T23:41:59.240Z,16.55
2018-08-18T23:51:59.231Z,16.4
